Time;durP1;ratioP1;P1;durP2;ratioP2;P2;SDS_P1;SDS_P2;PMS_P1;PMS_P2;Temp;Humidity;BMP_temperature;BMP_pressure;BME280_temperature;BME280_humidity;BME280_pressure;Samples;Min_cycle;Max_cycle;Signal;HPM_P1;HPM_P2
2023/01/31 00:00:44;;;;;;;15.52;3.45;;;5.10;99.90;;;;;;5014205;28;20037;-46
2023/01/31 00:03:09;;;;;;;14.55;3.60;;;5.10;99.90;;;;;;5013053;28;20099;-48
2023/01/31 00:05:35;;;;;;;20.17;4.68;;;5.20;99.90;;;;;;5014523;28;20330;-46
2023/01/31 00:08:00;;;;;;;12.55;3.50;;;5.10;99.90;;;;;;5021467;28;20079;-49
2023/01/31 00:10:26;;;;;;;18.85;5.18;;;5.10;99.90;;;;;;5031990;28;20083;-47
2023/01/31 00:12:51;;;;;;;17.75;3.17;;;5.20;99.90;;;;;;5016648;28;20421;-52
2023/01/31 00:15:18;;;;;;;15.73;3.85;;;5.20;99.90;;;;;;5016833;28;20036;-50
2023/01/31 00:17:43;;;;;;;13.50;4.40;;;5.20;99.90;;;;;;5034143;28;20515;-52
2023/01/31 00:20:10;;;;;;;11.85;3.50;;;5.20;99.90;;;;;;5034107;28;20033;-46
2023/01/31 00:22:36;;;;;;;14.20;3.45;;;5.30;99.90;;;;;;5033439;28;20022;-48
2023/01/31 00:25:02;;;;;;;14.68;3.28;;;5.30;99.90;;;;;;5033728;28;20040;-47
2023/01/31 00:27:27;;;;;;;14.95;2.65;;;5.30;99.90;;;;;;5054436;23;20122;-52
2023/01/31 00:29:53;;;;;;;11.68;2.70;;;5.30;99.90;;;;;;5032265;28;20029;-55
2023/01/31 00:32:19;;;;;;;12.57;3.53;;;5.30;99.90;;;;;;5033194;28;20025;-56
2023/01/31 00:34:44;;;;;;;13.05;3.38;;;5.30;99.90;;;;;;5033638;28;20026;-55
2023/01/31 00:37:09;;;;;;;11.30;2.60;;;5.30;99.90;;;;;;5031963;28;20373;-55
2023/01/31 00:39:35;;;;;;;10.30;3.80;;;5.20;99.90;;;;;;5033433;28;20118;-58
2023/01/31 00:42:01;;;;;;;16.45;4.50;;;5.30;99.90;;;;;;5033121;28;20048;-54
2023/01/31 00:44:26;;;;;;;24.15;4.32;;;5.20;99.90;;;;;;5033028;28;20325;-53
2023/01/31 00:46:51;;;;;;;13.57;3.15;;;5.30;99.90;;;;;;5033196;28;20536;-54
2023/01/31 00:49:17;;;;;;;21.05;3.53;;;5.30;99.90;;;;;;5033259;28;20039;-54
2023/01/31 00:51:43;;;;;;;13.32;4.20;;;5.20;99.90;;;;;;5015315;28;20025;-52
2023/01/31 00:54:09;;;;;;;7.43;2.47;;;5.20;99.90;;;;;;5032690;28;20075;-53
2023/01/31 00:56:36;;;;;;;11.80;2.88;;;5.10;99.90;;;;;;5033090;28;20021;-51
2023/01/31 00:59:07;;;;;;;14.43;3.58;;;5.10;99.90;;;;;;5032923;28;20404;-58
2023/01/31 01:01:33;;;;;;;16.95;3.00;;;5.00;99.90;;;;;;5033037;28;20076;-55
2023/01/31 01:03:59;;;;;;;16.15;3.10;;;4.90;99.90;;;;;;5014970;28;20443;-50
2023/01/31 01:06:26;;;;;;;15.32;2.63;;;4.90;99.90;;;;;;5014024;28;20025;-51
2023/01/31 01:08:52;;;;;;;11.60;3.38;;;4.80;99.90;;;;;;5032793;28;20064;-52
2023/01/31 01:11:21;;;;;;;15.80;3.17;;;4.70;99.90;;;;;;5032930;28;20060;-53
2023/01/31 01:13:47;;;;;;;11.77;4.10;;;4.60;99.90;;;;;;5014507;28;20065;-54
2023/01/31 01:16:16;;;;;;;13.15;3.65;;;4.60;99.90;;;;;;5032409;28;20026;-53
2023/01/31 01:18:43;;;;;;;14.05;3.00;;;4.60;99.90;;;;;;5032459;28;20014;-52
2023/01/31 01:21:12;;;;;;;11.43;3.28;;;4.50;99.90;;;;;;5032701;28;20104;-54
2023/01/31 01:23:39;;;;;;;14.23;3.30;;;4.50;99.90;;;;;;5032201;28;20167;-53
2023/01/31 01:26:05;;;;;;;19.52;4.18;;;4.40;99.90;;;;;;5032507;28;20060;-52
2023/01/31 01:28:34;;;;;;;22.15;5.93;;;4.30;99.90;;;;;;5032421;28;20128;-58
2023/01/31 01:31:07;;;;;;;18.58;3.97;;;4.20;99.90;;;;;;5032873;28;20029;-54
2023/01/31 01:33:34;;;;;;;15.02;3.38;;;4.20;99.90;;;;;;5031985;28;20026;-55
2023/01/31 01:36:04;;;;;;;10.10;2.67;;;4.10;99.90;;;;;;5032427;28;20021;-54
2023/01/31 01:38:29;;;;;;;16.67;4.70;;;4.10;99.90;;;;;;5014760;28;20018;-58
2023/01/31 01:40:55;;;;;;;15.40;3.08;;;4.00;99.90;;;;;;5015257;28;20100;-52
2023/01/31 01:43:36;;;;;;;18.15;4.63;;;4.00;99.90;;;;;;5032512;28;20099;-55
2023/01/31 01:46:02;;;;;;;14.15;3.28;;;4.00;99.90;;;;;;5032077;28;20033;-56
2023/01/31 01:48:28;;;;;;;15.80;3.75;;;4.00;99.90;;;;;;5013743;28;20032;-57
2023/01/31 01:50:53;;;;;;;15.15;4.25;;;4.10;99.90;;;;;;5032022;28;20388;-58
2023/01/31 01:53:26;;;;;;;13.57;3.80;;;4.00;99.90;;;;;;5031624;28;20087;-53
2023/01/31 01:55:56;;;;;;;14.05;2.95;;;4.00;99.90;;;;;;5031937;28;20100;-58
2023/01/31 01:58:35;;;;;;;23.88;5.15;;;4.00;99.90;;;;;;5014172;28;20029;-59
2023/01/31 02:01:04;;;;;;;14.75;3.05;;;4.00;99.90;;;;;;5031877;28;20026;-57
2023/01/31 02:03:29;;;;;;;19.58;4.00;;;3.90;99.90;;;;;;5031617;28;20745;-55
2023/01/31 02:05:59;;;;;;;16.75;5.05;;;4.00;99.90;;;;;;5014005;28;20069;-54
2023/01/31 02:08:27;;;;;;;13.13;3.22;;;3.90;99.90;;;;;;5031815;28;20099;-54
2023/01/31 02:11:22;;;;;;;19.02;3.75;;;4.00;99.90;;;;;;5031689;28;20100;-54
2023/01/31 02:13:49;;;;;;;17.48;3.10;;;4.00;99.90;;;;;;5030954;28;20021;-56
2023/01/31 02:16:15;;;;;;;17.73;3.83;;;4.00;99.90;;;;;;5013594;28;20553;-56
2023/01/31 02:18:42;;;;;;;18.45;3.75;;;4.00;99.90;;;;;;5031454;28;20105;-56
2023/01/31 02:21:10;;;;;;;14.13;3.50;;;4.10;99.90;;;;;;5031659;28;20022;-51
2023/01/31 02:24:01;;;;;;;17.40;3.40;;;4.10;99.90;;;;;;5030911;28;20057;-56
2023/01/31 02:26:41;;;;;;;17.80;4.50;;;4.10;99.90;;;;;;5031506;28;20052;-56
2023/01/31 02:29:41;;;;;;;20.38;3.67;;;4.20;99.90;;;;;;5031342;28;20036;-59
2023/01/31 02:32:09;;;;;;;11.25;3.17;;;4.20;99.90;;;;;;5013630;28;20032;-56
2023/01/31 02:35:05;;;;;;;18.42;4.40;;;4.30;99.90;;;;;;5031245;28;20461;-59
2023/01/31 02:37:55;;;;;;;11.93;4.18;;;4.30;99.90;;;;;;5031157;28;20018;-56
2023/01/31 02:40:32;;;;;;;19.55;3.75;;;4.30;99.90;;;;;;5031197;28;20033;-57
2023/01/31 02:43:24;;;;;;;16.85;3.63;;;4.20;99.90;;;;;;5030972;28;20029;-56
2023/01/31 02:46:16;;;;;;;19.63;4.38;;;4.20;99.90;;;;;;5031261;28;20025;-59
2023/01/31 02:48:57;;;;;;;19.67;3.22;;;4.20;99.90;;;;;;5031267;28;20013;-56
2023/01/31 02:51:28;;;;;;;12.45;3.33;;;4.10;99.90;;;;;;5031309;28;20062;-56
2023/01/31 02:54:22;;;;;;;14.40;2.63;;;4.10;99.90;;;;;;5030915;28;20032;-57
2023/01/31 02:56:49;;;;;;;16.15;3.22;;;4.10;99.90;;;;;;5031296;28;20109;-57
2023/01/31 02:59:24;;;;;;;11.02;2.85;;;4.00;99.90;;;;;;5030911;28;20026;-55
2023/01/31 03:01:57;;;;;;;16.25;4.18;;;4.00;99.90;;;;;;5031447;28;20021;-60
2023/01/31 03:04:23;;;;;;;15.90;3.97;;;3.90;99.90;;;;;;5031102;28;20041;-57
2023/01/31 03:06:59;;;;;;;13.13;2.80;;;3.80;99.90;;;;;;5031217;28;20439;-57
2023/01/31 03:09:30;;;;;;;18.52;3.03;;;3.70;99.90;;;;;;5013235;28;20036;-59
2023/01/31 03:12:29;;;;;;;15.45;3.05;;;3.70;99.90;;;;;;5030960;28;20049;-53
2023/01/31 03:15:10;;;;;;;11.75;3.22;;;3.70;99.90;;;;;;5030883;28;20049;-53
2023/01/31 03:18:04;;;;;;;8.85;3.47;;;3.50;99.90;;;;;;5013075;28;20108;-54
2023/01/31 03:20:42;;;;;;;16.30;3.20;;;3.50;99.90;;;;;;5031041;28;20032;-57
2023/01/31 03:23:12;;;;;;;22.40;5.38;;;3.50;99.90;;;;;;5013128;28;20900;-57
2023/01/31 03:25:38;;;;;;;15.85;3.47;;;3.40;99.90;;;;;;5013310;28;20045;-55
2023/01/31 03:28:09;;;;;;;16.35;3.70;;;3.40;99.90;;;;;;5030797;28;20108;-56
2023/01/31 03:30:41;;;;;;;13.57;2.67;;;3.40;99.90;;;;;;5016824;28;20026;-54
2023/01/31 03:33:17;;;;;;;14.18;3.97;;;3.40;99.90;;;;;;5034011;28;20033;-58
2023/01/31 03:35:46;;;;;;;13.35;3.55;;;3.40;99.90;;;;;;5016980;28;20505;-57
2023/01/31 03:38:19;;;;;;;14.30;3.20;;;3.40;99.90;;;;;;5034418;28;20029;-55
2023/01/31 03:41:00;;;;;;;15.23;2.80;;;3.40;99.90;;;;;;5034638;28;20017;-53
2023/01/31 03:43:30;;;;;;;14.77;2.88;;;3.40;99.90;;;;;;5016380;28;20030;-55
2023/01/31 03:46:15;;;;;;;14.13;4.13;;;3.50;99.90;;;;;;5034420;28;20444;-54
2023/01/31 03:48:44;;;;;;;13.98;3.25;;;3.50;99.90;;;;;;5034152;28;20029;-56
2023/01/31 03:51:16;;;;;;;18.85;3.90;;;3.40;99.90;;;;;;5034310;28;20435;-56
2023/01/31 03:53:51;;;;;;;15.20;4.05;;;3.50;99.90;;;;;;5016125;28;20028;-59
2023/01/31 03:56:20;;;;;;;12.60;3.33;;;3.50;99.90;;;;;;5034548;28;20022;-57
2023/01/31 03:58:53;;;;;;;15.60;3.65;;;3.50;99.90;;;;;;5034326;28;20021;-56
2023/01/31 04:01:23;;;;;;;7.32;3.10;;;3.50;99.90;;;;;;5034182;28;20458;-57
2023/01/31 04:03:56;;;;;;;18.92;3.25;;;3.40;99.90;;;;;;5033712;28;20026;-59
2023/01/31 04:06:22;;;;;;;9.98;3.47;;;3.40;99.90;;;;;;5033498;28;20029;-55
2023/01/31 04:08:48;;;;;;;18.00;4.80;;;3.40;99.90;;;;;;5033876;28;20075;-56
2023/01/31 04:11:14;;;;;;;13.30;3.63;;;3.50;99.90;;;;;;5033689;28;20026;-55
2023/01/31 04:13:41;;;;;;;10.70;2.78;;;3.40;99.90;;;;;;5015582;28;20374;-56
2023/01/31 04:16:07;;;;;;;15.95;2.95;;;3.40;99.90;;;;;;5015748;28;20493;-53
2023/01/31 04:18:32;;;;;;;15.88;4.97;;;3.40;99.90;;;;;;5015878;28;20025;-57
2023/01/31 04:20:58;;;;;;;10.27;4.03;;;3.40;99.90;;;;;;5015872;28;20417;-54
2023/01/31 04:23:25;;;;;;;9.57;2.63;;;3.40;99.90;;;;;;5033404;28;20025;-57
2023/01/31 04:25:53;;;;;;;14.20;3.58;;;3.30;99.90;;;;;;5033806;28;20029;-56
2023/01/31 04:28:18;;;;;;;23.15;4.32;;;3.30;99.90;;;;;;5015648;28;20037;-56
2023/01/31 04:30:44;;;;;;;11.95;2.60;;;3.40;99.90;;;;;;5033733;28;20451;-55
2023/01/31 04:33:09;;;;;;;10.00;2.97;;;3.30;99.90;;;;;;5033080;28;20021;-57
2023/01/31 04:35:35;;;;;;;16.88;3.60;;;3.30;99.90;;;;;;5033412;28;20079;-56
2023/01/31 04:38:00;;;;;;;13.73;3.30;;;3.30;99.90;;;;;;5033415;28;20104;-55
2023/01/31 04:40:26;;;;;;;12.13;4.60;;;3.40;99.90;;;;;;5033292;28;20076;-58
2023/01/31 04:42:51;;;;;;;15.88;5.13;;;3.40;99.90;;;;;;5033014;28;20108;-59
2023/01/31 04:45:16;;;;;;;17.48;3.65;;;3.40;99.90;;;;;;5033189;28;20026;-52
2023/01/31 04:47:42;;;;;;;15.55;4.05;;;3.40;99.90;;;;;;5033199;28;20029;-56
2023/01/31 04:50:08;;;;;;;18.58;3.20;;;3.40;99.90;;;;;;5033206;28;20169;-52
2023/01/31 04:52:34;;;;;;;14.32;2.80;;;3.30;99.90;;;;;;5032977;28;20210;-52
2023/01/31 04:54:59;;;;;;;18.67;4.15;;;3.30;99.90;;;;;;5032692;28;20025;-58
2023/01/31 04:57:25;;;;;;;22.70;5.63;;;3.30;99.90;;;;;;5032845;28;20160;-59
2023/01/31 04:59:51;;;;;;;20.63;4.28;;;3.30;99.90;;;;;;5032773;28;20021;-57
2023/01/31 05:02:16;;;;;;;7.07;2.42;;;3.30;99.90;;;;;;5014852;28;20036;-52
2023/01/31 05:04:42;;;;;;;20.35;3.55;;;3.30;99.90;;;;;;5032913;28;20477;-55
2023/01/31 05:07:07;;;;;;;15.68;2.97;;;3.30;99.90;;;;;;5032694;28;20032;-53
2023/01/31 05:09:33;;;;;;;18.95;3.08;;;3.30;99.90;;;;;;5032772;28;20025;-55
2023/01/31 05:11:58;;;;;;;10.38;3.03;;;3.30;99.90;;;;;;5014466;28;20559;-52
2023/01/31 05:14:24;;;;;;;15.68;3.47;;;3.40;99.90;;;;;;5032044;28;20068;-54
2023/01/31 05:16:49;;;;;;;14.90;4.53;;;3.30;99.90;;;;;;5032921;28;20384;-56
2023/01/31 05:19:15;;;;;;;16.42;3.45;;;3.40;99.90;;;;;;5032399;28;20018;-55
2023/01/31 05:21:53;;;;;;;16.65;3.83;;;3.40;99.90;;;;;;5032513;28;20120;-55
2023/01/31 05:24:22;;;;;;;15.65;4.00;;;3.30;99.90;;;;;;5032206;28;20064;-52
2023/01/31 05:26:50;;;;;;;17.23;3.58;;;3.30;99.90;;;;;;5014561;28;20025;-54
2023/01/31 05:29:16;;;;;;;14.30;3.88;;;3.30;99.90;;;;;;5032191;28;20452;-57
2023/01/31 05:31:41;;;;;;;7.30;2.50;;;3.30;99.90;;;;;;5032363;28;20131;-55
2023/01/31 05:34:09;;;;;;;17.98;4.40;;;3.30;99.90;;;;;;5032013;28;20037;-52
2023/01/31 05:36:34;;;;;;;9.70;2.78;;;3.30;99.90;;;;;;5032199;28;20069;-55
2023/01/31 05:38:59;;;;;;;14.25;3.47;;;3.30;99.90;;;;;;5032065;28;20030;-56
2023/01/31 05:41:25;;;;;;;20.45;3.78;;;3.30;99.90;;;;;;5032314;28;20034;-52
2023/01/31 05:43:50;;;;;;;17.65;3.53;;;3.20;99.90;;;;;;5013851;28;20029;-54
2023/01/31 05:46:16;;;;;;;12.88;3.92;;;3.30;99.90;;;;;;5032378;28;20052;-58
2023/01/31 05:48:41;;;;;;;17.40;2.88;;;3.20;99.90;;;;;;5032012;28;20025;-55
2023/01/31 05:51:07;;;;;;;11.93;3.30;;;3.20;99.90;;;;;;5032139;28;20511;-51
2023/01/31 05:53:33;;;;;;;9.90;2.78;;;3.20;99.90;;;;;;5031921;28;20029;-55
2023/01/31 05:55:58;;;;;;;13.27;4.00;;;3.10;99.90;;;;;;5032236;28;20069;-56
2023/01/31 05:58:24;;;;;;;23.77;4.78;;;3.10;99.90;;;;;;5032036;28;20105;-48
2023/01/31 06:00:49;;;;;;;17.58;4.00;;;3.10;99.90;;;;;;5032094;28;20026;-55
2023/01/31 06:03:15;;;;;;;21.73;4.55;;;3.20;99.90;;;;;;5031832;28;20021;-56
2023/01/31 06:05:40;;;;;;;11.45;3.05;;;3.20;99.90;;;;;;5032053;28;20064;-53
2023/01/31 06:08:06;;;;;;;20.10;3.97;;;3.10;99.90;;;;;;5031985;28;20021;-52
2023/01/31 06:10:31;;;;;;;17.27;2.97;;;3.10;99.90;;;;;;5031980;28;20036;-56
2023/01/31 06:12:57;;;;;;;10.85;3.38;;;3.10;99.90;;;;;;5031586;28;20025;-58
2023/01/31 06:15:22;;;;;;;12.77;2.83;;;3.10;99.90;;;;;;5031396;28;20025;-56
2023/01/31 06:17:48;;;;;;;11.32;3.15;;;3.10;99.90;;;;;;5031925;28;20037;-56
2023/01/31 06:20:13;;;;;;;11.07;3.13;;;3.10;99.90;;;;;;5031685;28;20555;-57
2023/01/31 06:22:40;;;;;;;18.77;3.58;;;3.10;99.90;;;;;;5031546;28;20021;-53
2023/01/31 06:25:06;;;;;;;11.43;3.10;;;3.10;99.90;;;;;;5031497;28;20091;-55
2023/01/31 06:27:35;;;;;;;7.05;3.33;;;3.10;99.90;;;;;;5032120;28;20037;-50
2023/01/31 06:30:00;;;;;;;11.73;2.92;;;3.00;99.90;;;;;;5014291;28;20396;-53
2023/01/31 06:32:26;;;;;;;12.43;2.90;;;3.00;99.90;;;;;;5031388;28;20029;-54
2023/01/31 06:34:52;;;;;;;16.55;4.82;;;3.10;99.90;;;;;;5031579;28;20035;-54
2023/01/31 06:37:17;;;;;;;10.77;3.35;;;3.10;99.90;;;;;;5031335;28;20305;-56
2023/01/31 06:39:42;;;;;;;16.67;3.42;;;3.20;99.90;;;;;;5031237;28;20033;-55
2023/01/31 06:42:08;;;;;;;12.88;3.75;;;3.20;99.90;;;;;;5031133;28;20025;-56
2023/01/31 06:44:33;;;;;;;17.83;2.92;;;3.30;99.90;;;;;;5031217;28;20076;-52
2023/01/31 06:47:00;;;;;;;16.65;3.70;;;3.30;99.90;;;;;;5031439;28;20053;-56
2023/01/31 06:49:26;;;;;;;14.88;3.42;;;3.40;99.90;;;;;;5031110;28;20075;-53
2023/01/31 06:51:51;;;;;;;15.00;3.67;;;3.40;99.90;;;;;;5031116;28;20061;-55
2023/01/31 06:54:16;;;;;;;18.52;3.95;;;3.50;99.90;;;;;;5031151;28;20116;-56
2023/01/31 06:56:42;;;;;;;11.55;4.07;;;3.50;99.90;;;;;;5031213;28;20021;-54
2023/01/31 06:59:08;;;;;;;16.90;3.45;;;3.50;99.90;;;;;;5031033;28;20103;-51
2023/01/31 07:01:33;;;;;;;11.57;3.60;;;3.50;99.90;;;;;;5031241;28;20022;-54
2023/01/31 07:03:59;;;;;;;14.65;4.13;;;3.40;99.90;;;;;;5015874;28;20025;-56
2023/01/31 07:06:25;;;;;;;17.92;4.65;;;3.40;99.90;;;;;;5035336;28;20033;-54
2023/01/31 07:08:51;;;;;;;13.48;3.38;;;3.40;99.90;;;;;;5035419;28;20035;-52
2023/01/31 07:11:16;;;;;;;16.52;3.35;;;3.40;99.90;;;;;;5017114;28;20163;-54
2023/01/31 07:13:44;;;;;;;11.05;3.17;;;3.40;99.90;;;;;;5034088;28;20112;-49
2023/01/31 07:16:10;;;;;;;20.67;4.13;;;3.40;99.90;;;;;;5035329;28;20488;-55
2023/01/31 07:18:35;;;;;;;15.88;5.05;;;3.30;99.90;;;;;;5034409;28;20029;-53
2023/01/31 07:21:01;;;;;;;15.63;4.38;;;3.30;99.90;;;;;;5034924;28;20438;-55
2023/01/31 07:23:26;;;;;;;13.65;4.03;;;3.20;99.90;;;;;;5034574;28;20026;-52
2023/01/31 07:25:52;;;;;;;9.02;4.15;;;3.20;99.90;;;;;;5016973;28;20028;-54
2023/01/31 07:28:17;;;;;;;11.98;5.00;;;3.10;99.90;;;;;;5016750;28;20037;-51
2023/01/31 07:30:44;;;;;;;21.23;7.88;;;3.10;99.90;;;;;;5034959;28;20061;-52
2023/01/31 07:33:10;;;;;;;12.23;4.80;;;3.10;99.90;;;;;;5034562;28;20068;-54
2023/01/31 07:35:36;;;;;;;13.00;6.43;;;3.10;99.90;;;;;;5034706;28;20473;-58
2023/01/31 07:38:01;;;;;;;20.33;7.05;;;3.10;99.90;;;;;;5034647;28;20037;-54
2023/01/31 07:40:27;;;;;;;17.90;7.25;;;3.00;99.90;;;;;;5034543;28;20029;-55
2023/01/31 07:42:57;;;;;;;18.83;6.05;;;2.90;99.90;;;;;;5034124;28;20022;-56
2023/01/31 07:45:23;;;;;;;22.27;8.65;;;2.90;99.90;;;;;;5034441;28;20022;-56
2023/01/31 07:47:48;;;;;;;19.85;9.48;;;2.80;99.90;;;;;;5034306;28;20041;-54
2023/01/31 07:50:14;;;;;;;26.60;12.98;;;2.80;99.90;;;;;;5034537;28;20032;-53
2023/01/31 07:52:39;;;;;;;22.00;11.50;;;2.70;99.90;;;;;;5033931;28;20108;-55
2023/01/31 07:55:06;;;;;;;23.00;12.23;;;2.70;99.90;;;;;;5033810;28;20104;-57
2023/01/31 07:57:31;;;;;;;25.90;12.52;;;2.70;99.90;;;;;;5016224;28;20029;-53
2023/01/31 07:59:56;;;;;;;28.33;13.15;;;2.70;99.90;;;;;;5034024;28;20030;-55
2023/01/31 08:05:08;;;;;;;27.60;12.65;;;2.90;99.90;;;;;;5034267;28;20083;-54
2023/01/31 08:07:33;;;;;;;24.67;13.23;;;3.00;99.90;;;;;;5016411;28;20087;-54
2023/01/31 08:09:59;;;;;;;25.10;13.88;;;3.10;99.90;;;;;;5034047;28;20077;-55
2023/01/31 08:12:24;;;;;;;27.52;14.95;;;3.10;99.90;;;;;;5033707;28;20040;-55
2023/01/31 08:14:50;;;;;;;28.52;14.10;;;3.10;99.90;;;;;;5032833;28;20493;-56
2023/01/31 08:17:15;;;;;;;34.38;17.13;;;3.10;99.90;;;;;;5033766;28;20104;-56
2023/01/31 08:19:41;;;;;;;29.25;15.20;;;3.00;99.90;;;;;;5033757;28;20029;-56
2023/01/31 08:22:06;;;;;;;26.88;15.02;;;3.10;99.90;;;;;;5015670;28;20030;-54
2023/01/31 08:24:32;;;;;;;29.10;13.90;;;3.00;99.90;;;;;;5033373;28;20192;-58
2023/01/31 08:26:58;;;;;;;27.80;14.30;;;3.10;99.90;;;;;;5033606;28;20037;-56
2023/01/31 08:29:24;;;;;;;28.75;14.88;;;3.10;99.90;;;;;;5033072;28;20052;-57
2023/01/31 08:31:51;;;;;;;32.50;14.63;;;3.00;99.90;;;;;;5033366;28;20108;-58
2023/01/31 08:34:17;;;;;;;29.40;14.18;;;3.10;99.90;;;;;;5033184;28;20406;-54
2023/01/31 08:36:43;;;;;;;27.17;13.40;;;3.00;99.90;;;;;;5033350;28;20021;-58
2023/01/31 08:39:09;;;;;;;24.75;12.20;;;3.00;99.90;;;;;;5033164;28;20025;-53
2023/01/31 08:41:36;;;;;;;25.17;12.15;;;3.00;99.90;;;;;;5033290;28;20101;-56
2023/01/31 08:44:03;;;;;;;28.05;14.68;;;3.00;99.90;;;;;;5032859;28;20033;-53
2023/01/31 08:46:31;;;;;;;35.42;12.55;;;3.00;99.90;;;;;;5033019;28;20038;-58
2023/01/31 08:48:56;;;;;;;28.70;12.88;;;3.00;99.90;;;;;;5014736;28;20037;-56
2023/01/31 08:51:22;;;;;;;24.63;11.13;;;3.10;99.90;;;;;;5031130;28;20038;-57
2023/01/31 08:53:48;;;;;;;23.65;10.70;;;3.10;99.90;;;;;;5032092;28;20025;-57
2023/01/31 08:56:14;;;;;;;24.88;11.85;;;3.20;99.90;;;;;;5037620;28;20103;-56
2023/01/31 08:58:42;;;;;;;23.08;11.55;;;3.20;99.90;;;;;;5020196;28;20028;-54
2023/01/31 09:01:13;;;;;;;28.92;10.90;;;3.30;99.90;;;;;;5032703;28;20068;-57
2023/01/31 09:03:39;;;;;;;25.23;10.80;;;3.30;99.90;;;;;;5032224;28;20512;-61
2023/01/31 09:06:09;;;;;;;26.50;12.20;;;3.40;99.90;;;;;;5033311;28;20056;-58
2023/01/31 09:08:34;;;;;;;21.85;10.00;;;3.50;99.90;;;;;;5033463;28;20108;-55
2023/01/31 09:11:00;;;;;;;20.08;10.23;;;3.60;99.90;;;;;;5016082;28;20072;-58
2023/01/31 09:13:27;;;;;;;26.38;10.07;;;3.70;99.90;;;;;;5037342;28;20029;-56
2023/01/31 09:16:07;;;;;;;19.00;9.38;;;3.70;99.90;;;;;;5037461;28;20032;-51
2023/01/31 09:18:34;;;;;;;18.98;9.25;;;3.70;99.90;;;;;;5035584;28;20018;-59
2023/01/31 09:21:08;;;;;;;22.35;10.45;;;3.80;99.90;;;;;;5035831;28;20021;-56
2023/01/31 09:23:34;;;;;;;20.02;9.30;;;3.90;99.90;;;;;;5036443;28;20085;-57
2023/01/31 09:26:00;;;;;;;17.02;8.73;;;3.80;99.90;;;;;;5034171;28;20034;-56
2023/01/31 09:28:26;;;;;;;22.83;10.23;;;3.90;99.90;;;;;;5034913;28;20033;-59
2023/01/31 09:30:54;;;;;;;24.70;10.02;;;3.90;99.90;;;;;;5016937;28;20032;-58
2023/01/31 09:33:21;;;;;;;22.70;9.15;;;3.70;99.90;;;;;;5034346;28;20025;-59
2023/01/31 09:35:58;;;;;;;21.48;8.80;;;3.90;99.90;;;;;;5032082;28;20029;-61
2023/01/31 09:38:23;;;;;;;15.27;9.15;;;3.90;99.90;;;;;;5032578;28;20026;-58
2023/01/31 09:40:49;;;;;;;17.70;8.82;;;4.00;99.90;;;;;;5032845;28;20021;-58
2023/01/31 09:43:18;;;;;;;22.02;9.60;;;4.20;99.90;;;;;;5033580;28;20030;-59
2023/01/31 09:45:45;;;;;;;17.30;7.60;;;4.30;99.90;;;;;;5034733;28;20092;-60
2023/01/31 09:48:20;;;;;;;21.63;9.45;;;4.40;99.90;;;;;;5034457;28;20032;-59
2023/01/31 09:50:50;;;;;;;17.60;8.43;;;4.50;99.90;;;;;;5035160;28;20022;-58
2023/01/31 09:53:20;;;;;;;15.70;8.88;;;4.50;99.90;;;;;;5034523;28;20384;-61
2023/01/31 09:56:19;;;;;;;16.85;9.10;;;4.60;99.90;;;;;;5017467;28;20060;-60
2023/01/31 09:58:54;;;;;;;17.05;8.77;;;4.70;99.90;;;;;;5034345;28;20044;-58
2023/01/31 10:01:44;;;;;;;23.85;9.75;;;4.70;99.90;;;;;;5035919;28;20025;-61
2023/01/31 10:04:22;;;;;;;13.20;8.18;;;4.70;99.90;;;;;;5014743;28;20492;-58
2023/01/31 10:06:55;;;;;;;17.90;7.35;;;4.70;99.90;;;;;;5031645;28;20033;-58
2023/01/31 10:09:39;;;;;;;16.08;7.68;;;4.60;99.90;;;;;;5037317;28;20069;-60
2023/01/31 10:12:09;;;;;;;21.77;9.18;;;4.60;99.90;;;;;;5042407;28;20028;-61
2023/01/31 10:14:57;;;;;;;19.75;8.65;;;4.60;99.90;;;;;;5044156;28;20033;-61
2023/01/31 10:17:27;;;;;;;19.35;7.93;;;4.60;99.90;;;;;;5048866;28;20029;-62
2023/01/31 10:20:08;;;;;;;17.70;8.07;;;4.60;99.90;;;;;;5045905;28;20028;-59
2023/01/31 10:22:38;;;;;;;26.13;8.93;;;4.60;99.90;;;;;;5025556;28;20087;-59
2023/01/31 10:25:31;;;;;;;17.23;7.95;;;4.70;99.90;;;;;;5046921;28;20033;-56
2023/01/31 10:28:10;;;;;;;23.77;8.35;;;4.70;99.90;;;;;;5029999;28;20124;-56
2023/01/31 10:30:48;;;;;;;17.98;8.38;;;4.70;99.90;;;;;;5019999;28;20026;-58
2023/01/31 10:33:37;;;;;;;14.35;6.53;;;4.70;99.90;;;;;;5026863;28;20061;-57
2023/01/31 10:36:10;;;;;;;14.23;8.02;;;4.80;99.90;;;;;;5011661;28;20198;-57
2023/01/31 10:38:57;;;;;;;24.40;8.30;;;4.80;99.90;;;;;;5035178;28;20022;-58
2023/01/31 10:41:49;;;;;;;17.63;7.72;;;4.70;99.90;;;;;;5019921;28;20021;-52
2023/01/31 10:44:26;;;;;;;19.92;8.15;;;4.80;99.90;;;;;;5037867;28;20108;-55
2023/01/31 10:46:57;;;;;;;15.68;7.60;;;4.80;99.90;;;;;;5034810;28;20384;-53
2023/01/31 10:49:24;;;;;;;15.38;9.13;;;4.80;99.90;;;;;;5037496;28;20036;-50
2023/01/31 10:52:27;;;;;;;12.32;6.70;;;4.80;99.90;;;;;;5037528;28;20108;-50
2023/01/31 10:55:02;;;;;;;18.42;6.82;;;4.80;99.90;;;;;;5029689;28;20026;-52
2023/01/31 10:57:27;;;;;;;18.13;7.03;;;4.80;99.90;;;;;;5037674;28;21674;-51
2023/01/31 10:59:54;;;;;;;17.00;7.28;;;4.80;99.90;;;;;;5036452;28;20029;-47
2023/01/31 11:02:23;;;;;;;12.07;6.68;;;4.90;99.90;;;;;;5033074;28;20497;-53
2023/01/31 11:04:51;;;;;;;16.52;7.95;;;5.10;99.90;;;;;;5017893;28;20053;-59
2023/01/31 11:07:17;;;;;;;13.73;7.18;;;5.30;99.90;;;;;;5033352;28;20033;-52
2023/01/31 11:09:48;;;;;;;12.35;7.20;;;5.40;99.90;;;;;;5044383;28;20061;-56
2023/01/31 11:12:13;;;;;;;13.55;6.63;;;5.40;99.90;;;;;;5037594;28;20033;-57
2023/01/31 11:14:39;;;;;;;13.02;7.00;;;5.40;99.90;;;;;;5037233;28;20029;-59
2023/01/31 11:17:05;;;;;;;11.95;7.20;;;5.40;99.90;;;;;;5013500;28;20169;-60
2023/01/31 11:19:39;;;;;;;21.25;6.88;;;5.30;99.90;;;;;;5027967;28;20022;-57
2023/01/31 11:22:06;;;;;;;17.90;7.93;;;5.20;99.90;;;;;;5037477;28;20026;-52
2023/01/31 11:24:36;;;;;;;15.20;6.35;;;5.20;99.90;;;;;;5036783;28;20041;-57
2023/01/31 11:27:05;;;;;;;11.43;7.07;;;5.20;99.90;;;;;;5018897;28;20029;-61
2023/01/31 11:29:36;;;;;;;13.88;7.57;;;5.20;99.90;;;;;;5035904;28;20025;-61
2023/01/31 11:32:05;;;;;;;19.63;7.38;;;5.20;99.90;;;;;;5034569;28;20129;-61
2023/01/31 11:34:32;;;;;;;13.93;7.05;;;5.20;99.90;;;;;;5035025;28;20032;-58
2023/01/31 11:37:16;;;;;;;17.42;8.00;;;5.20;99.90;;;;;;5036619;28;20101;-60
2023/01/31 11:39:52;;;;;;;17.08;8.00;;;5.20;99.90;;;;;;5024951;28;20029;-56
2023/01/31 11:42:18;;;;;;;14.13;7.03;;;5.10;99.90;;;;;;5036666;28;20040;-49
2023/01/31 11:45:14;;;;;;;22.35;8.63;;;5.10;99.90;;;;;;5019024;28;20408;-53
2023/01/31 11:47:52;;;;;;;15.38;6.88;;;5.10;99.90;;;;;;5002737;28;20041;-49
2023/01/31 11:50:30;;;;;;;13.10;7.40;;;5.10;99.90;;;;;;5029389;28;20308;-49
2023/01/31 11:53:01;;;;;;;12.70;6.60;;;5.20;99.90;;;;;;5032292;28;20041;-49
2023/01/31 11:55:35;;;;;;;18.15;7.50;;;5.10;99.90;;;;;;5032420;28;20029;-53
2023/01/31 11:58:06;;;;;;;14.18;7.18;;;5.10;99.90;;;;;;5030654;28;20048;-52
2023/01/31 12:00:32;;;;;;;15.52;7.22;;;5.20;99.90;;;;;;5003320;28;20397;-50
2023/01/31 12:03:04;;;;;;;14.57;7.40;;;5.20;99.90;;;;;;5031868;28;20017;-51
2023/01/31 12:05:35;;;;;;;9.90;6.43;;;5.30;99.90;;;;;;5031798;28;20029;-53
2023/01/31 12:08:01;;;;;;;17.00;8.07;;;5.30;99.90;;;;;;5029815;28;20026;-61
2023/01/31 12:10:46;;;;;;;18.20;7.57;;;5.40;99.90;;;;;;5032380;28;20484;-56
2023/01/31 12:13:19;;;;;;;13.80;8.10;;;5.40;99.90;;;;;;5031482;28;20025;-53
2023/01/31 12:15:54;;;;;;;14.65;8.15;;;5.40;99.90;;;;;;5018832;28;20029;-54
2023/01/31 12:18:40;;;;;;;15.63;7.90;;;5.40;99.90;;;;;;5032380;28;20025;-56
2023/01/31 12:21:29;;;;;;;;;;;5.50;99.90;;;;;;5032345;28;20061;-52
2023/01/31 12:24:25;;;;;;;16.30;7.28;;;5.40;99.90;;;;;;5018528;28;19916;-52
2023/01/31 12:27:08;;;;;;;12.63;7.50;;;5.40;99.90;;;;;;5029954;28;20088;-45
2023/01/31 12:29:50;;;;;;;17.30;8.27;;;5.40;99.90;;;;;;5032353;28;20157;-55
2023/01/31 12:32:36;;;;;;;22.67;8.65;;;5.40;99.90;;;;;;5031905;28;20480;-57
2023/01/31 12:35:09;;;;;;;24.98;8.85;;;5.40;99.90;;;;;;5014168;28;20448;-55
2023/01/31 12:38:06;;;;;;;20.75;8.15;;;5.40;99.90;;;;;;5032118;28;20029;-50
2023/01/31 12:40:37;;;;;;;17.85;8.00;;;5.40;99.90;;;;;;5024792;28;20083;-50
2023/01/31 12:43:13;;;;;;;21.15;9.27;;;5.40;99.90;;;;;;5031552;28;20060;-61
2023/01/31 12:45:56;;;;;;;18.80;8.85;;;5.40;99.90;;;;;;5015853;28;20090;-57
2023/01/31 12:48:49;;;;;;;17.95;8.55;;;5.50;99.90;;;;;;5031487;28;20181;-50
2023/01/31 12:51:46;;;;;;;21.42;8.15;;;5.40;99.90;;;;;;5032492;28;20085;-56
2023/01/31 12:54:22;;;;;;;;;;;5.50;99.90;;;;;;5031812;28;20026;-56
2023/01/31 12:57:12;;;;;;;18.75;8.45;;;5.50;99.90;;;;;;5031836;28;19916;-57
2023/01/31 12:59:53;;;;;;;19.90;8.38;;;5.60;99.90;;;;;;5031412;28;20054;-48
2023/01/31 13:02:46;;;;;;;19.50;9.00;;;5.60;99.90;;;;;;5031323;28;20072;-52
2023/01/31 13:05:43;;;;;;;19.67;8.70;;;5.70;99.90;;;;;;5028454;28;20030;-51